Time;durP1;ratioP1;P1;durP2;ratioP2;P2;SDS_P1;SDS_P2;PMS_P1;PMS_P2;Temp;Humidity;BMP_temperature;BMP_pressure;BME280_temperature;BME280_humidity;BME280_pressure;Samples;Min_cycle;Max_cycle;Signal;HPM_P1;HPM_P2
2023/09/04 00:01:24;;;;;;;4.25;1.50;;;;;;;21.25;54.53;99436.31;4948663;29;20121;-96
2023/09/04 00:03:50;;;;;;;2.92;1.60;;;;;;;21.29;54.36;99439.16;4946725;29;20066;-96
2023/09/04 00:06:16;;;;;;;4.53;1.48;;;;;;;21.38;54.53;99454.38;4946464;29;20379;-96
2023/09/04 00:08:42;;;;;;;1.80;1.30;;;;;;;21.13;54.65;99420.63;4948318;29;20075;-96
2023/09/04 00:11:08;;;;;;;2.70;1.35;;;;;;;21.02;55.54;99413.16;4962138;29;20039;-96
2023/09/04 00:13:33;;;;;;;5.32;1.50;;;;;;;21.16;55.26;99433.63;4946154;29;20507;-96
2023/09/04 00:15:59;;;;;;;2.85;1.40;;;;;;;21.22;55.18;99425.22;4945940;29;20517;-96
2023/09/04 00:18:30;;;;;;;2.13;1.42;;;;;;;21.15;55.19;99418.34;4947680;29;20063;-96
2023/09/04 00:20:58;;;;;;;3.93;1.73;;;;;;;21.24;54.91;99415.53;4947005;29;20039;-96
2023/09/04 00:23:27;;;;;;;1.80;1.33;;;;;;;21.33;54.78;99415.41;4956624;29;20066;-95
2023/09/04 00:26:02;;;;;;;5.97;1.30;;;;;;;21.35;54.05;99424.94;4987731;28;20031;-96
2023/09/04 00:28:30;;;;;;;2.17;1.27;;;;;;;21.28;53.84;99412.91;4972051;29;20046;-96
2023/09/04 00:30:59;;;;;;;4.53;1.52;;;;;;;21.33;55.83;99420.91;4971752;28;20095;-96
2023/09/04 00:33:26;;;;;;;2.63;1.60;;;;;;;21.25;56.55;99408.09;4971135;29;20097;-96
2023/09/04 00:35:53;;;;;;;2.95;1.52;;;;;;;21.17;57.81;99412.56;4970935;29;20046;-96
2023/09/04 00:38:23;;;;;;;6.93;1.75;;;;;;;21.19;57.67;99416.53;4987668;28;20102;-94
2023/09/04 00:40:55;;;;;;;3.42;1.75;;;;;;;21.30;57.23;99419.66;4971859;28;20047;-96
2023/09/04 00:43:21;;;;;;;4.35;1.85;;;;;;;21.10;57.04;99415.81;4971627;29;20035;-96
2023/09/04 00:45:54;;;;;;;5.47;1.60;;;;;;;20.92;57.33;99414.41;4970623;29;20028;-96
2023/09/04 00:48:24;;;;;;;3.20;1.50;;;;;;;20.80;57.89;99415.16;4970829;28;20035;-95
2023/09/04 00:50:54;;;;;;;4.07;1.80;;;;;;;20.89;58.13;99418.59;4971145;29;20054;-96
2023/09/04 00:53:22;;;;;;;3.28;1.38;;;;;;;20.81;58.27;99410.47;4969990;28;20027;-96
2023/09/04 00:55:48;;;;;;;2.40;1.42;;;;;;;20.75;58.31;99421.66;4954539;29;20059;-96
2023/09/04 00:58:14;;;;;;;3.03;1.42;;;;;;;20.75;58.92;99432.59;4953566;29;20050;-96
2023/09/04 01:00:44;;;;;;;2.58;1.48;;;;;;;20.68;60.07;99428.78;4969786;29;20055;-95
2023/09/04 01:03:15;;;;;;;4.78;1.80;;;;;;;20.69;60.54;99417.50;4986863;28;20059;-96
2023/09/04 01:05:41;;;;;;;4.57;1.80;;;;;;;20.48;61.22;99420.22;4954888;29;20031;-96
2023/09/04 01:08:06;;;;;;;2.92;1.60;;;;;;;20.28;62.30;99419.06;4969151;28;20511;-96
2023/09/04 01:10:55;;;;;;;3.50;1.73;;;;;;;20.23;61.79;99413.78;4945438;29;20035;-96
2023/09/04 01:13:54;;;;;;;3.03;1.90;;;;;;;19.97;64.11;99411.22;4956146;29;20039;-96
2023/09/04 01:16:22;;;;;;;3.15;1.60;;;;;;;20.04;62.69;99414.22;4926345;29;20039;-96
2023/09/04 01:18:48;;;;;;;3.35;1.45;;;;;;;20.01;62.70;99403.19;4963618;29;20102;-96
2023/09/04 01:21:14;;;;;;;2.50;1.45;;;;;;;19.97;62.76;99398.34;4962222;29;20051;-96
2023/09/04 01:23:39;;;;;;;2.50;1.55;;;;;;;19.72;63.77;99402.84;4946085;29;20035;-96
2023/09/04 01:26:20;;;;;;;3.15;1.48;;;;;;;19.91;63.89;99420.75;4945429;29;20057;-96
2023/09/04 01:29:10;;;;;;;2.60;1.50;;;;;;;19.82;64.23;99417.25;4962026;29;20098;-96
2023/09/04 01:31:43;;;;;;;2.10;1.48;;;;;;;19.70;64.74;99416.00;4961959;29;20409;-96
2023/09/04 01:34:10;;;;;;;4.00;1.63;;;;;;;19.58;63.71;99402.22;4961800;29;20039;-96
2023/09/04 01:36:35;;;;;;;2.13;1.40;;;;;;;19.71;63.23;99417.59;4949665;29;20035;-96
2023/09/04 01:39:01;;;;;;;2.75;1.20;;;;;;;19.71;63.18;99412.13;4949034;29;20437;-96
2023/09/04 01:41:27;;;;;;;2.70;1.48;;;;;;;19.77;63.25;99421.75;4962161;29;20102;-96
2023/09/04 01:43:55;;;;;;;5.13;1.20;;;;;;;19.89;63.39;99429.25;4947752;29;20035;-96
2023/09/04 01:46:21;;;;;;;3.45;1.20;;;;;;;19.78;63.85;99411.66;4944842;29;20031;-96
2023/09/04 01:48:49;;;;;;;2.45;1.40;;;;;;;19.76;64.25;99402.97;4960905;29;20037;-96
2023/09/04 01:51:15;;;;;;;1.92;1.20;;;;;;;19.66;64.84;99417.78;4948197;29;20045;-96
2023/09/04 01:53:42;;;;;;;3.03;1.42;;;;;;;19.54;64.99;99398.53;4962260;29;20031;-95
2023/09/04 01:56:11;;;;;;;2.70;1.42;;;;;;;19.67;64.60;99410.38;4961676;29;20024;-96
2023/09/04 01:58:37;;;;;;;1.77;1.27;;;;;;;19.55;64.55;99402.88;4963783;29;20066;-96
2023/09/04 02:01:02;;;;;;;1.90;1.10;;;;;;;19.41;64.76;99396.84;4944998;29;20138;-97
2023/09/04 02:03:30;;;;;;;2.90;1.17;;;;;;;19.39;64.83;99387.03;4960461;29;20501;-96
2023/09/04 02:05:56;;;;;;;1.70;1.20;;;;;;;19.36;64.77;99390.41;4960328;28;20118;-96
2023/09/04 02:08:21;;;;;;;3.53;1.60;;;;;;;19.20;65.30;99388.56;4962390;29;20118;-96
2023/09/04 02:10:48;;;;;;;1.50;1.10;;;;;;;19.21;65.23;99387.41;4960556;29;20050;-96
2023/09/04 02:13:13;;;;;;;2.03;1.25;;;;;;;19.31;65.24;99387.84;4961281;29;20494;-96
2023/09/04 02:15:39;;;;;;;1.75;1.20;;;;;;;19.30;65.04;99379.97;4961762;29;20098;-96
2023/09/04 02:18:05;;;;;;;2.17;1.20;;;;;;;19.31;65.51;99367.94;4944625;29;20049;-96
2023/09/04 02:20:30;;;;;;;2.15;1.20;;;;;;;19.36;65.04;99376.78;4959859;29;20035;-96
2023/09/04 02:22:58;;;;;;;2.35;1.00;;;;;;;19.32;65.59;99373.09;4960194;29;20034;-96
2023/09/04 02:25:27;;;;;;;2.33;1.10;;;;;;;19.25;65.32;99370.03;4945193;29;20473;-96
2023/09/04 02:27:53;;;;;;;3.00;1.13;;;;;;;19.06;66.06;99364.97;4943831;29;20035;-96
2023/09/04 02:30:21;;;;;;;4.13;1.45;;;;;;;19.07;66.23;99357.56;4945811;29;20039;-96
2023/09/04 02:32:47;;;;;;;5.78;1.75;;;;;;;19.08;66.18;99362.72;4947431;29;20122;-96
2023/09/04 02:35:12;;;;;;;2.92;1.30;;;;;;;19.04;65.99;99353.56;4944562;29;20580;-96
2023/09/04 02:37:38;;;;;;;1.75;1.00;;;;;;;19.04;66.16;99364.50;4962196;29;20043;-96
2023/09/04 02:40:06;;;;;;;1.80;1.20;;;;;;;18.89;66.66;99362.28;4944319;29;20051;-96
2023/09/04 02:42:31;;;;;;;2.60;1.27;;;;;;;19.19;65.14;99365.88;4945524;29;20154;-96
2023/09/04 02:44:57;;;;;;;2.22;1.30;;;;;;;19.24;65.21;99373.13;4947304;29;20049;-96
2023/09/04 02:47:23;;;;;;;1.60;1.20;;;;;;;19.25;64.93;99367.31;4945805;29;20137;-96
2023/09/04 02:49:48;;;;;;;4.05;1.40;;;;;;;19.29;64.95;99373.72;4946796;29;20537;-96
2023/09/04 02:52:14;;;;;;;1.75;1.30;;;;;;;19.05;66.17;99346.19;4948716;29;20070;-96
2023/09/04 02:54:41;;;;;;;2.63;1.40;;;;;;;18.98;67.06;99354.88;4950010;29;20390;-96
2023/09/04 02:57:07;;;;;;;2.03;1.30;;;;;;;18.98;67.66;99363.06;4965735;29;20043;-96
2023/09/04 02:59:36;;;;;;;3.65;1.77;;;;;;;18.89;67.92;99354.91;4964332;29;20042;-96
2023/09/04 03:02:02;;;;;;;5.75;1.40;;;;;;;18.96;68.37;99376.22;4948343;29;20039;-96
2023/09/04 03:04:27;;;;;;;2.58;1.60;;;;;;;18.92;68.31;99353.44;4947886;29;20046;-96
2023/09/04 03:06:53;;;;;;;4.28;2.25;;;;;;;19.05;66.79;99357.94;4962934;29;20035;-96
2023/09/04 03:09:19;;;;;;;11.85;9.98;;;;;;;19.01;66.93;99359.69;4948388;29;20038;-96
2023/09/04 03:11:47;;;;;;;5.65;2.97;;;;;;;18.86;67.42;99355.53;4953184;29;20035;-96
2023/09/04 03:14:15;;;;;;;5.57;2.25;;;;;;;18.91;68.36;99363.56;4956151;29;20050;-96
2023/09/04 03:16:52;;;;;;;6.03;2.78;;;;;;;18.89;68.45;99374.00;4959665;28;20047;-96
2023/09/04 03:19:21;;;;;;;4.63;1.63;;;;;;;18.78;69.93;99373.53;4975871;29;20050;-96
2023/09/04 03:21:56;;;;;;;2.60;1.65;;;;;;;18.64;70.25;99358.44;4973632;29;20031;-96
2023/09/04 03:24:29;;;;;;;2.53;1.38;;;;;;;18.48;70.64;99356.19;4956479;29;20039;-96
2023/09/04 03:27:06;;;;;;;2.63;1.67;;;;;;;18.41;70.32;99349.63;4956142;29;20099;-96
2023/09/04 03:29:42;;;;;;;;;;;;;;;;;;;;;
2023/09/04 03:32:08;;;;;;;3.15;1.88;;;;;;;18.38;70.70;99360.03;4973416;29;20122;-96
2023/09/04 03:35:22;;;;;;;2.05;1.45;;;;;;;18.33;70.63;99335.69;4957817;28;20035;-96
2023/09/04 03:41:42;;;;;;;2.67;1.52;;;;;;;18.57;69.90;99362.47;5734446;23;20345;31
2023/09/04 03:44:07;;;;;;;1.95;1.60;;;;;;;18.39;70.83;99349.97;4915337;29;20111;-96
2023/09/04 03:46:33;;;;;;;4.03;1.80;;;;;;;18.31;71.16;99346.09;4917222;29;20032;-96
2023/09/04 03:49:01;;;;;;;7.93;1.90;;;;;;;18.31;71.23;99346.09;4913362;29;20447;-96
2023/09/04 03:51:27;;;;;;;2.53;1.77;;;;;;;18.32;71.18;99347.72;4912836;29;20134;-96
2023/09/04 03:53:54;;;;;;;2.40;1.60;;;;;;;18.53;71.24;99360.69;4912393;29;20075;-95
2023/09/04 03:56:20;;;;;;;1.85;1.50;;;;;;;18.49;71.35;99363.28;4925636;29;20033;-96
2023/09/04 03:58:45;;;;;;;3.95;1.60;;;;;;;18.54;70.32;99349.47;4912940;29;20040;-96
2023/09/04 04:01:13;;;;;;;5.78;1.45;;;;;;;18.53;69.90;99353.31;4927745;29;20047;-96
2023/09/04 04:03:43;;;;;;;12.30;11.10;;;;;;;18.56;70.61;99373.69;4915151;29;20036;-96
2023/09/04 04:06:13;;;;;;;2.90;1.80;;;;;;;18.53;70.81;99369.69;4915313;29;20047;-96
2023/09/04 04:08:45;;;;;;;3.30;1.98;;;;;;;18.47;70.41;99370.16;4917574;29;20040;-96
2023/09/04 04:11:15;;;;;;;4.80;2.25;;;;;;;18.49;70.46;99363.28;4916840;29;20107;-96
2023/09/04 04:13:59;;;;;;;4.38;1.90;;;;;;;18.51;69.42;99347.41;4933548;29;20043;-96
2023/09/04 04:16:24;;;;;;;2.58;1.85;;;;;;;18.80;68.57;99354.13;4918717;29;20028;-96
2023/09/04 04:27:34;;;;;;;2.97;1.70;;;;;;;18.78;68.09;99342.72;4974421;28;20055;-96
2023/09/04 04:30:20;;;;;;;2.58;1.77;;;;;;;19.10;67.25;99362.41;5658951;23;21589;-96
2023/09/04 04:32:52;;;;;;;4.82;1.70;;;;;;;19.09;66.68;99344.41;4971351;28;20042;-96
2023/09/04 04:35:17;;;;;;;2.85;1.50;;;;;;;18.96;67.33;99346.22;4950142;28;20074;-96
2023/09/04 04:37:46;;;;;;;4.13;1.70;;;;;;;19.08;66.75;99354.53;4950882;28;20045;-96
2023/09/04 04:40:19;;;;;;;4.72;2.20;;;;;;;19.13;66.06;99354.38;4965635;28;20062;-96
2023/09/04 04:42:45;;;;;;;2.92;2.35;;;;;;;19.12;66.38;99350.03;4950159;28;20042;-96
2023/09/04 04:45:11;;;;;;;5.53;2.97;;;;;;;19.37;65.67;99353.78;4965437;28;20117;-96
2023/09/04 04:47:36;;;;;;;4.85;3.05;;;;;;;19.37;65.89;99353.78;4965741;28;20034;-96
2023/09/04 04:50:10;;;;;;;5.90;3.08;;;;;;;19.29;65.79;99331.97;4952164;28;20039;-96
2023/09/04 04:52:36;;;;;;;6.78;3.72;;;;;;;19.55;65.95;99356.47;4952865;28;20046;-96
2023/09/04 04:55:01;;;;;;;5.57;3.40;;;;;;;19.49;66.38;99346.84;4965717;28;20039;-95
2023/09/04 04:58:03;;;;;;;4.90;2.35;;;;;;;19.59;66.23;99358.19;4949966;28;20046;-95
2023/09/04 05:00:31;;;;;;;3.83;2.35;;;;;;;19.61;66.03;99363.34;4967056;28;20030;-96
2023/09/04 05:02:57;;;;;;;4.47;2.30;;;;;;;19.44;66.55;99364.19;4948640;28;20027;-96
2023/09/04 05:05:28;;;;;;;4.05;2.42;;;;;;;19.37;66.70;99351.06;4971062;28;20049;-96
2023/09/04 05:08:27;;;;;;;5.70;2.50;;;;;;;19.70;65.44;99366.84;4961678;28;20027;-96
2023/09/04 05:11:27;;;;;;;4.60;2.13;;;;;;;19.38;66.48;99346.38;5730372;23;20077;-96
2023/09/04 05:22:48;;;;;;;7.97;3.83;;;;;;;19.39;67.86;99364.38;4970794;28;20087;-96
2023/09/04 05:25:37;;;;;;;8.05;4.32;;;;;;;19.34;67.66;99354.44;4955836;29;20038;-96
2023/09/04 05:30:48;;;;;;;6.72;5.22;;;;;;;19.35;67.83;99371.63;5276836;23;20062;-96
2023/09/04 05:33:30;;;;;;;12.95;6.18;;;;;;;19.41;68.23;99366.78;4976009;28;20069;-94
2023/09/04 05:35:56;;;;;;;13.70;8.70;;;;;;;19.38;68.19;99360.88;4955537;28;20022;-95
2023/09/04 05:38:22;;;;;;;14.27;7.65;;;;;;;19.42;68.25;99363.72;4970553;28;20045;-96
2023/09/04 05:40:54;;;;;;;8.50;6.30;;;;;;;19.47;68.73;99370.94;4956120;28;20035;-96
2023/09/04 05:43:22;;;;;;;10.55;4.65;;;;;;;19.45;69.03;99384.94;4971941;28;20046;-95
2023/09/04 05:45:52;;;;;;;10.48;4.95;;;;;;;19.37;69.48;99374.84;4954181;28;20046;-95
2023/09/04 05:48:22;;;;;;;9.27;5.10;;;;;;;19.46;69.08;99367.41;4956395;28;20022;-96
2023/09/04 05:50:54;;;;;;;13.75;4.80;;;;;;;19.36;69.04;99368.59;5174081;23;20056;-96
2023/09/04 05:56:12;;;;;;;6.10;3.95;;;;;;;19.51;67.59;99356.31;4972482;28;20055;-96
2023/09/04 05:59:00;;;;;;;6.93;3.40;;;;;;;19.65;67.40;99358.81;4951854;29;20043;-96
2023/09/04 06:01:35;;;;;;;6.20;2.83;;;;;;;19.79;67.97;99366.78;4949988;29;20039;-96
2023/09/04 06:12:55;;;;;;;6.10;2.20;;;;;;;20.19;65.78;99353.53;5847224;23;20609;-96
2023/09/04 06:15:27;;;;;;;7.80;2.95;;;;;;;20.24;65.46;99355.25;4964446;28;20042;-95
2023/09/04 06:17:55;;;;;;;;;;;;;;;20.33;65.30;99377.84;4964513;28;20043;-96
2023/09/04 06:20:23;;;;;;;4.72;2.58;;;;;;;20.20;65.25;99359.78;4950368;28;19898;-96
2023/09/04 06:22:49;;;;;;;7.35;2.47;;;;;;;20.29;63.60;99355.03;4944504;28;20070;-95
2023/09/04 06:25:18;;;;;;;16.02;2.65;;;;;;;20.27;63.51;99349.09;4966525;28;20038;-94
2023/09/04 06:27:44;;;;;;;5.90;2.40;;;;;;;20.27;63.32;99357.31;4946059;28;20082;-95
2023/09/04 06:30:13;;;;;;;6.65;2.50;;;;;;;20.19;65.17;99361.72;4964137;28;20039;-96
2023/09/04 06:32:43;;;;;;;97.75;73.57;;;;;;;20.24;65.43;99357.97;4947735;28;20046;-96
2023/09/04 06:35:33;;;;;;;;;;;;;;;;;;;;;
2023/09/04 06:38:10;;;;;;;5.10;2.03;;;;;;;20.01;65.58;99360.25;4966636;28;20094;-96
2023/09/04 06:41:01;;;;;;;5.10;2.42;;;;;;;20.09;65.37;99380.47;4954883;28;20038;-96
2023/09/04 06:43:29;;;;;;;8.18;4.57;;;;;;;20.22;64.95;99378.59;4953479;28;20489;-96
2023/09/04 06:48:52;;;;;;;6.10;3.00;;;;;;;20.53;63.64;99378.97;4975167;23;20091;-96
2023/09/04 06:51:18;;;;;;;7.10;5.13;;;;;;;20.72;63.67;99402.34;4928895;29;20055;-94
2023/09/04 06:53:44;;;;;;;5.30;3.60;;;;;;;20.57;64.23;99398.28;4924139;29;20020;-94
2023/09/04 06:56:10;;;;;;;9.10;3.67;;;;;;;20.68;63.42;99391.28;4923451;29;20044;-96
2023/09/04 06:58:35;;;;;;;5.18;2.97;;;;;;;20.70;63.76;99410.09;4925203;29;20066;-95
2023/09/04 07:01:24;;;;;;;3.28;2.17;;;;;;;20.59;63.75;99399.56;4947472;29;20039;-96
2023/09/04 07:03:53;;;;;;;3.95;2.15;;;;;;;20.73;63.03;99407.50;4929126;29;20054;-96
2023/09/04 07:06:21;;;;;;;6.63;1.90;;;;;;;20.57;63.05;99404.53;4923058;29;20035;-95
2023/09/04 07:08:47;;;;;;;4.47;1.90;;;;;;;20.37;63.70;99408.06;4907680;29;20517;-95
2023/09/04 07:11:12;;;;;;;2.65;2.08;;;;;;;20.57;61.84;99401.00;4924809;29;20076;-96
2023/09/04 07:20:43;;;;;;;6.18;1.70;;;;;;;20.38;61.58;99415.94;4872556;29;20126;-96
2023/09/04 07:23:09;;;;;;;2.90;1.98;;;;;;;20.34;61.60;99406.81;4867942;29;20052;-96
2023/09/04 07:25:44;;;;;;;2.53;1.90;;;;;;;20.48;62.28;99413.94;4839980;29;20029;-96
2023/09/04 07:28:39;;;;;;;6.28;2.00;;;;;;;20.43;62.68;99414.16;5021991;23;20033;-96
2023/09/04 07:31:12;;;;;;;3.13;1.83;;;;;;;20.40;61.56;99418.34;4936173;29;20061;-96
2023/09/04 07:33:44;;;;;;;4.13;1.80;;;;;;;20.37;61.42;99416.28;4917786;29;20046;-96
2023/09/04 07:36:10;;;;;;;4.43;2.17;;;;;;;20.25;62.49;99411.50;4922052;29;20031;-96
2023/09/04 07:38:47;;;;;;;2.28;1.80;;;;;;;20.37;61.33;99408.84;4921537;29;20089;-96
2023/09/04 07:41:25;;;;;;;2.95;1.90;;;;;;;20.42;61.38;99415.25;4940412;29;20031;-96
2023/09/04 07:43:58;;;;;;;3.88;2.20;;;;;;;20.48;61.79;99417.50;4924663;29;20142;-96
2023/09/04 07:46:25;;;;;;;4.10;2.00;;;;;;;20.55;59.80;99406.00;4914988;29;20099;-96
2023/09/04 07:48:50;;;;;;;3.85;2.05;;;;;;;20.45;60.32;99412.66;4928183;29;20107;-96
2023/09/04 07:51:17;;;;;;;2.67;1.90;;;;;;;20.52;60.47;99436.75;5559400;23;20077;-94
2023/09/04 07:53:43;;;;;;;2.30;2.03;;;;;;;20.39;60.08;99414.00;4929540;29;20058;-96
2023/09/04 07:56:16;;;;;;;4.80;2.08;;;;;;;20.61;60.12;99440.28;4930399;29;20047;-96
2023/09/04 07:58:47;;;;;;;2.50;1.90;;;;;;;20.64;58.81;99417.69;4932426;29;20094;-96
2023/09/04 08:01:13;;;;;;;3.70;2.05;;;;;;;20.64;58.93;99425.91;4927526;29;20129;-96
2023/09/04 08:03:41;;;;;;;2.58;2.00;;;;;;;20.74;57.67;99433.72;4927748;29;20035;-96
2023/09/04 08:06:38;;;;;;;3.20;2.00;;;;;;;20.89;57.95;99437.75;4936045;29;20041;-95
2023/09/04 08:09:13;;;;;;;3.10;1.75;;;;;;;20.90;56.67;99416.69;4954744;29;20413;-95
2023/09/04 08:24:27;;;;;;;6.78;4.05;;;;;;;20.89;56.82;99429.56;4916089;29;20446;-96
2023/09/04 08:27:01;;;;;;;5.13;2.00;;;;;;;20.98;55.66;99443.19;4877776;29;20047;-96
2023/09/04 08:29:27;;;;;;;3.75;1.88;;;;;;;20.88;55.96;99432.66;4950921;28;20039;-96
2023/09/04 08:31:52;;;;;;;2.78;1.90;;;;;;;20.90;56.65;99433.13;4965454;28;20042;-95
2023/09/04 08:34:19;;;;;;;7.05;2.85;;;;;;;20.95;55.77;99430.16;4957662;28;20038;-96
2023/09/04 08:37:00;;;;;;;;;;;;;;;;;;;;;
2023/09/04 08:39:29;;;;;;;3.55;1.77;;;;;;;20.99;55.22;99431.09;4947838;29;20099;-95
2023/09/04 08:42:07;;;;;;;3.55;2.00;;;;;;;21.07;54.87;99421.97;4898820;29;20050;-96
2023/09/04 08:49:43;;;;;;;3.10;1.90;;;;;;;20.96;56.20;99429.03;5857141;23;20042;-96
2023/09/04 08:52:41;;;;;;;3.20;2.10;;;;;;;20.88;56.88;99440.84;4958284;28;20049;-96
2023/09/04 08:55:26;;;;;;;3.97;2.33;;;;;;;20.76;58.24;99453.34;4963103;28;20042;-96
2023/09/04 08:58:22;;;;;;;;;;;;;;;;;;;;;
2023/09/04 09:00:54;;;;;;;2.97;2.45;;;;;;;20.25;60.43;99433.38;4938471;29;20117;-96
2023/09/04 09:03:33;;;;;;;2.95;2.30;;;;;;;20.41;60.02;99441.03;4921783;29;20043;-96
2023/09/04 09:11:10;;;;;;;3.17;2.75;;;;;;;20.25;62.45;99447.06;4991647;28;20038;-96
2023/09/04 09:13:54;;;;;;;;;;;;;;;;;;;;;
2023/09/04 09:23:14;;;;;;;5.32;3.10;;;;;;;19.61;68.33;99467.13;4950465;29;20086;-96
2023/09/04 09:25:47;;;;;;;6.53;3.78;;;;;;;19.41;68.71;99438.59;4918781;29;20047;-96
2023/09/04 09:28:12;;;;;;;13.43;7.00;;;;;;;19.67;69.35;99446.72;4903480;29;20067;-96
2023/09/04 09:38:31;;;;;;;10.35;5.13;;;;;;;19.71;75.39;99446.84;4919622;29;20115;-95
2023/09/04 09:41:02;;;;;;;10.32;5.57;;;;;;;19.58;77.13;99441.25;4950933;28;20019;-96
2023/09/04 09:46:04;;;;;;;11.20;6.60;;;;;;;19.57;78.79;99441.59;5142104;23;20042;-95
2023/09/04 09:48:40;;;;;;;11.60;6.43;;;;;;;19.48;77.27;99440.81;4971750;28;20034;-96
2023/09/04 09:51:07;;;;;;;8.57;5.63;;;;;;;19.40;76.12;99445.16;4986021;28;20464;-95
2023/09/04 09:53:51;;;;;;;10.60;5.20;;;;;;;19.52;74.69;99449.97;4983815;28;20042;-96
2023/09/04 09:56:42;;;;;;;6.60;5.32;;;;;;;19.28;76.09;99431.38;4970548;28;20031;-96
2023/09/04 09:59:49;;;;;;;9.98;5.80;;;;;;;19.13;77.18;99421.78;4966317;28;20038;-96
2023/09/04 10:02:38;;;;;;;8.38;7.20;;;;;;;19.13;78.34;99432.69;4966769;28;20043;-96
2023/09/04 10:05:25;;;;;;;7.43;5.95;;;;;;;19.24;76.79;99433.97;4973794;28;20069;-96
2023/09/04 10:14:41;;;;;;;9.27;6.07;;;;;;;19.55;74.39;99439.19;4907684;29;20038;-95
2023/09/04 10:17:28;;;;;;;9.68;5.88;;;;;;;19.53;75.11;99449.63;4897117;29;20067;-96
2023/09/04 10:20:24;;;;;;;9.15;5.22;;;;;;;19.65;72.54;99457.16;4933647;29;20486;-96
2023/09/04 10:23:07;;;;;;;7.85;5.35;;;;;;;19.58;73.06;99432.25;4913380;29;20042;-94
2023/09/04 10:36:49;;;;;;;;;;;;;;;;;;;;;
2023/09/04 10:39:18;;;;;;;8.80;5.60;;;;;;;19.51;74.15;99453.84;4992505;28;20085;-96
2023/09/04 10:41:58;;;;;;;6.35;4.97;;;;;;;19.55;74.55;99461.03;4969478;28;20038;-96
2023/09/04 10:44:51;;;;;;;23.83;18.90;;;;;;;19.61;73.96;99471.78;4954496;28;20121;-96
2023/09/04 10:47:17;;;;;;;7.00;5.03;;;;;;;19.42;73.53;99456.56;4970465;28;20026;-96
2023/09/04 11:29:29;;;;;;;5.00;3.97;;;;;;;19.76;72.36;99452.16;4990532;28;20094;-96
2023/09/04 12:00:22;;;;;;;9.93;7.00;;;;;;;19.02;79.09;99464.19;5641805;23;21287;-96
2023/09/04 12:06:37;;;;;;;;;;;;;;;;;;;;;
2023/09/04 12:09:05;;;;;;;8.43;3.88;;;;;;;18.87;75.44;99449.91;4963073;28;20125;-94
2023/09/04 12:11:31;;;;;;;7.35;3.97;;;;;;;18.80;73.87;99454.25;4948619;28;20042;-96
2023/09/04 12:14:09;;;;;;;5.78;3.80;;;;;;;18.65;76.76;99471.88;4948406;28;20035;-96
2023/09/04 12:16:35;;;;;;;5.97;3.97;;;;;;;18.66;75.06;99449.72;4950390;28;20038;-94
2023/09/04 12:19:05;;;;;;;7.47;3.83;;;;;;;18.77;76.17;99450.22;4953850;28;20056;-95
2023/09/04 12:34:04;;;;;;;9.95;3.70;;;;;;;18.40;76.84;99435.28;4994985;28;20046;-96
2023/09/04 12:41:50;;;;;;;8.60;3.95;;;;;;;18.57;79.26;99459.81;5775024;23;20061;-96
2023/09/04 13:25:25;;;;;;;;;;;;;;;;;;;;;
2023/09/04 13:27:51;;;;;;;4.90;3.50;;;;;;;18.51;76.53;99452.91;4931822;29;20116;-96
2023/09/04 13:30:19;;;;;;;11.20;5.30;;;;;;;18.52;76.58;99430.78;4929234;29;20027;-96
2023/09/04 13:32:48;;;;;;;4.47;3.75;;;;;;;18.36;78.69;99437.81;4930994;29;20429;-96
2023/09/04 13:35:18;;;;;;;7.07;3.88;;;;;;;18.40;80.99;99457.09;4929896;29;20044;-96
2023/09/04 13:37:48;;;;;;;6.75;4.47;;;;;;;18.43;79.53;99434.63;5029039;23;20067;-95
2023/09/04 13:40:17;;;;;;;4.32;3.22;;;;;;;18.55;76.17;99446.53;4948266;29;20043;-96
2023/09/04 14:54:45;;;;;;;5.07;3.53;;;;;;;18.50;77.44;99445.88;4965546;28;20043;-96
2023/09/04 14:57:11;;;;;;;4.60;3.38;;;;;;;18.50;76.24;99459.50;4937676;29;20047;-96
2023/09/04 15:24:35;;;;;;;4.07;3.10;;;;;;;18.44;75.48;99464.28;5654805;23;20076;-96
2023/09/04 15:33:48;;;;;;;13.05;3.72;;;;;;;18.22;78.24;99467.13;5165284;23;20045;-96
2023/09/04 15:36:35;;;;;;;4.88;3.35;;;;;;;18.09;76.73;99460.69;4977132;28;20031;-96
2023/09/04 15:44:18;;;;;;;7.30;3.33;;;;;;;18.30;76.73;99461.72;5758825;23;20239;-94
2023/09/04 15:55:47;;;;;;;;;;;;;;;;;;;;;
2023/09/04 16:04:00;;;;;;;;;;;;;;;;;;;;;
2023/09/04 16:06:26;;;;;;;3.13;2.80;;;;;;;18.37;74.54;99483.06;4971069;28;20109;-96
2023/09/04 16:08:52;;;;;;;6.53;3.35;;;;;;;18.19;77.67;99479.47;4951153;28;20693;-95
2023/09/04 16:11:17;;;;;;;9.50;3.50;;;;;;;18.11;77.16;99469.34;4981674;28;20041;-96
2023/09/04 16:13:45;;;;;;;9.90;7.93;;;;;;;18.05;76.71;99484.25;4967397;28;20412;-96
2023/09/04 16:16:11;;;;;;;4.68;3.13;;;;;;;18.21;76.74;99481.91;4967725;28;20046;-96
2023/09/04 16:18:37;;;;;;;4.60;3.30;;;;;;;18.25;76.76;99497.28;4964592;28;20039;-96
2023/09/04 16:21:02;;;;;;;6.05;3.67;;;;;;;18.12;77.12;99473.69;4952088;28;20042;-94
2023/09/04 16:23:28;;;;;;;5.47;3.30;;;;;;;18.33;75.07;99495.72;4946734;28;20105;-95
2023/09/04 16:25:55;;;;;;;5.25;3.30;;;;;;;18.16;75.90;99485.56;4950960;28;20121;-96
2023/09/04 16:28:24;;;;;;;2.97;2.50;;;;;;;18.12;74.69;99482.66;4966013;28;20121;-96
2023/09/04 16:35:52;;;;;;;6.70;3.42;;;;;;;18.07;77.02;99490.97;4966955;28;20059;-96
2023/09/04 16:38:21;;;;;;;4.22;3.17;;;;;;;17.97;77.71;99511.16;4951592;29;20067;-96
2023/09/04 16:40:47;;;;;;;3.20;2.72;;;;;;;17.93;77.58;99491.09;4950573;28;20047;-96
2023/09/04 16:43:13;;;;;;;3.78;2.83;;;;;;;18.13;76.46;99516.16;4954253;28;20035;-93
2023/09/04 16:45:44;;;;;;;6.63;3.38;;;;;;;18.14;77.64;99517.78;4947053;29;20038;-95
2023/09/04 16:48:12;;;;;;;5.90;3.30;;;;;;;17.94;78.34;99494.63;4933851;29;20042;-96
2023/09/04 16:50:37;;;;;;;5.88;3.75;;;;;;;17.90;79.79;99510.00;4965878;29;20067;-96
2023/09/04 16:53:03;;;;;;;4.78;3.55;;;;;;;17.86;77.76;99501.63;4932776;29;20035;-96
2023/09/04 16:55:29;;;;;;;4.78;3.53;;;;;;;17.91;78.41;99506.97;4930578;29;20035;-96
2023/09/04 16:57:58;;;;;;;4.20;3.58;;;;;;;18.01;78.86;99524.13;4928817;29;20126;-96
2023/09/04 17:00:23;;;;;;;5.05;3.25;;;;;;;18.04;80.21;99537.94;4961977;29;20031;-96
2023/09/04 17:02:52;;;;;;;4.78;3.30;;;;;;;18.13;78.00;99529.78;4930926;29;20118;-96
2023/09/04 17:05:21;;;;;;;3.42;2.92;;;;;;;17.96;79.05;99525.09;4948255;29;20035;-96
2023/09/04 17:07:49;;;;;;;3.97;3.17;;;;;;;18.09;78.66;99543.25;4935941;29;20027;-96
2023/09/04 17:10:24;;;;;;;7.30;2.88;;;;;;;18.17;78.25;99542.47;4947792;29;20493;-96
2023/09/04 17:12:53;;;;;;;4.18;2.92;;;;;;;18.07;77.28;99526.41;4932189;29;20176;-96
2023/09/04 17:15:22;;;;;;;4.50;3.08;;;;;;;18.03;78.40;99519.97;4947143;29;20133;-96
2023/09/04 17:17:52;;;;;;;3.40;2.75;;;;;;;18.11;78.70;99524.66;4949642;29;20047;-96
2023/09/04 17:20:18;;;;;;;5.05;3.30;;;;;;;17.90;79.34;99529.06;4948276;29;20038;-96
2023/09/04 17:22:46;;;;;;;5.20;3.38;;;;;;;17.96;79.84;99538.72;4949003;29;20019;-96
2023/09/04 17:25:12;;;;;;;4.90;3.28;;;;;;;17.94;79.93;99525.38;4931941;29;20039;-96
2023/09/04 17:27:38;;;;;;;12.45;3.58;;;;;;;17.96;80.38;99530.53;4933849;29;20105;-96
2023/09/04 17:30:05;;;;;;;9.10;3.15;;;;;;;18.02;79.02;99540.19;4933127;29;20039;-96
2023/09/04 17:32:38;;;;;;;5.13;4.30;;;;;;;18.06;78.60;99538.44;4932081;29;20047;-96
2023/09/04 17:35:22;;;;;;;6.35;3.50;;;;;;;17.84;79.40;99522.94;4927696;29;20052;-96
2023/09/04 17:37:52;;;;;;;4.53;3.05;;;;;;;17.93;78.56;99523.81;4943398;29;20031;-96
2023/09/04 17:40:22;;;;;;;3.95;3.38;;;;;;;17.89;79.62;99528.25;4935030;29;20087;-96
2023/09/04 17:43:03;;;;;;;5.07;4.05;;;;;;;17.67;82.12;99526.34;4934047;29;20032;-96
2023/09/04 17:45:43;;;;;;;5.38;4.00;;;;;;;17.65;83.11;99525.84;4920950;29;20044;-96
2023/09/04 17:48:20;;;;;;;4.65;3.72;;;;;;;17.62;82.81;99536.56;4919821;29;20056;-96
2023/09/04 17:51:07;;;;;;;4.55;3.53;;;;;;;17.67;83.23;99550.06;4935194;29;20040;-96
2023/09/04 17:53:36;;;;;;;5.15;3.83;;;;;;;17.61;84.06;99560.28;4933719;29;20042;-96
2023/09/04 17:56:19;;;;;;;6.95;4.90;;;;;;;17.42;84.20;99543.34;4950100;29;20033;-95
2023/09/04 18:02:12;;;;;;;;;;;;;;;;;;;;;
2023/09/04 18:05:06;;;;;;;5.13;3.97;;;;;;;17.67;83.48;99558.22;4946212;28;20052;-96
2023/09/04 18:07:52;;;;;;;7.72;3.33;;;;;;;17.82;81.47;99563.28;4936547;29;20043;-96
2023/09/04 18:10:30;;;;;;;5.25;3.38;;;;;;;17.84;81.15;99546.66;4952047;28;20060;-96
2023/09/04 18:13:03;;;;;;;4.75;3.40;;;;;;;17.87;81.75;99546.03;4950877;29;20048;-96